createdAt,value
2018-04-22T00:00:20.457Z,1003.5
2018-04-22T00:01:21.851Z,1003.4
2018-04-22T00:02:23.247Z,1003.4
2018-04-22T00:03:24.639Z,1003.4
2018-04-22T00:04:26.033Z,1003.4
2018-04-22T00:05:27.429Z,1003.4
2018-04-22T00:06:28.861Z,1003.4
2018-04-22T00:07:30.279Z,1003.4
2018-04-22T00:08:31.673Z,1003.4
2018-04-22T00:09:33.072Z,1003.4
2018-04-22T00:10:34.458Z,1003.3
2018-04-22T00:11:35.854Z,1003.4
2018-04-22T00:12:37.245Z,1003.3
2018-04-22T00:13:38.639Z,1003.3
2018-04-22T00:14:40.038Z,1003.2
2018-04-22T00:15:41.437Z,1003.2
2018-04-22T00:16:42.825Z,1003.2
2018-04-22T00:17:44.226Z,1003.2
2018-04-22T00:18:45.623Z,1003.3
2018-04-22T00:19:47.130Z,1003.2
2018-04-22T00:20:48.558Z,1003.2
2018-04-22T00:21:49.953Z,1003.2
2018-04-22T00:22:51.348Z,1003.2
2018-04-22T00:23:52.742Z,1003.1
2018-04-22T00:24:54.134Z,1003.2
2018-04-22T00:25:55.528Z,1003.2
2018-04-22T00:26:56.927Z,1003.1
2018-04-22T00:27:58.327Z,1003.1
2018-04-22T00:28:59.724Z,1003.1
2018-04-22T00:30:01.114Z,1003.1
2018-04-22T00:31:02.506Z,1003.1
2018-04-22T00:32:03.897Z,1003.1
2018-04-22T00:33:05.301Z,1003.0
2018-04-22T00:34:06.690Z,1003.0
2018-04-22T00:35:08.081Z,1003.0
2018-04-22T00:36:09.530Z,1003.0
2018-04-22T00:37:10.924Z,1002.9
2018-04-22T00:38:12.315Z,1002.9
2018-04-22T00:39:13.705Z,1002.9
2018-04-22T00:40:15.123Z,1002.9
2018-04-22T00:41:16.519Z,1002.9
2018-04-22T00:42:17.914Z,1002.9
2018-04-22T00:43:19.305Z,1002.9
2018-04-22T00:44:20.703Z,1002.9
2018-04-22T00:45:22.094Z,1002.9
2018-04-22T00:46:23.487Z,1002.9
2018-04-22T00:47:24.923Z,1002.8
2018-04-22T00:48:26.319Z,1002.8
2018-04-22T00:49:27.713Z,1002.9
2018-04-22T00:50:29.105Z,1002.8
2018-04-22T00:51:30.500Z,1002.8
2018-04-22T00:52:31.892Z,1002.8
2018-04-22T00:53:33.288Z,1002.7
2018-04-22T00:54:34.728Z,1002.7
2018-04-22T00:55:36.117Z,1002.7
2018-04-22T00:56:37.512Z,1002.7
2018-04-22T00:57:38.914Z,1002.7
2018-04-22T00:58:40.311Z,1002.6
2018-04-22T00:59:41.705Z,1002.6
2018-04-22T01:00:43.099Z,1002.7
2018-04-22T01:01:44.520Z,1002.7
2018-04-22T01:02:45.917Z,1002.6
2018-04-22T01:03:47.308Z,1002.7
2018-04-22T01:04:48.826Z,1002.6
2018-04-22T01:05:50.353Z,1002.7
2018-04-22T01:06:51.747Z,1002.6
2018-04-22T01:07:53.144Z,1002.6
2018-04-22T01:08:54.545Z,1002.6
2018-04-22T01:09:55.940Z,1002.5
2018-04-22T01:10:57.333Z,1002.6
2018-04-22T01:11:58.726Z,1002.6
2018-04-22T01:13:00.154Z,1002.5
2018-04-22T01:14:01.546Z,1002.5
2018-04-22T01:15:02.944Z,1002.5
2018-04-22T01:16:04.334Z,1002.5
2018-04-22T01:17:05.728Z,1002.6
2018-04-22T01:18:07.123Z,1002.5
2018-04-22T01:19:08.517Z,1002.6
2018-04-22T01:20:09.921Z,1002.6
2018-04-22T01:21:11.363Z,1002.6
2018-04-22T01:22:12.756Z,1002.6
2018-04-22T01:23:14.162Z,1002.5
2018-04-22T01:24:15.554Z,1002.5
2018-04-22T01:25:16.946Z,1002.5
2018-04-22T01:26:18.351Z,1002.5
2018-04-22T01:27:19.760Z,1002.5
2018-04-22T01:28:21.155Z,1002.5
2018-04-22T01:29:22.545Z,1002.5
2018-04-22T01:30:23.940Z,1002.5
2018-04-22T01:31:25.371Z,1002.5
2018-04-22T01:32:26.764Z,1002.5
2018-04-22T01:33:28.173Z,1002.4
2018-04-22T01:34:29.658Z,1002.4
2018-04-22T01:35:30.999Z,1002.4
2018-04-22T01:36:32.394Z,1002.4
2018-04-22T01:37:33.794Z,1002.4
2018-04-22T01:38:35.193Z,1002.4
2018-04-22T01:39:36.585Z,1002.4
2018-04-22T01:40:38.012Z,1002.4
2018-04-22T01:41:39.443Z,1002.3
2018-04-22T01:42:40.835Z,1002.3
2018-04-22T01:43:42.229Z,1002.3
2018-04-22T01:44:43.621Z,1002.3
2018-04-22T01:45:45.054Z,1002.3
2018-04-22T01:46:46.453Z,1002.3
2018-04-22T01:47:47.893Z,1002.3
2018-04-22T01:48:49.412Z,1002.3
2018-04-22T01:49:50.780Z,1002.3
2018-04-22T01:50:52.172Z,1002.3
2018-04-22T01:51:53.566Z,1002.3
2018-04-22T01:52:54.967Z,1002.3
2018-04-22T01:53:56.357Z,1002.3
2018-04-22T01:54:57.758Z,1002.3
2018-04-22T01:55:59.154Z,1002.3
2018-04-22T01:57:00.544Z,1002.3
2018-04-22T01:58:01.936Z,1002.3
2018-04-22T01:59:03.327Z,1002.3
2018-04-22T02:00:04.728Z,1002.3
2018-04-22T02:01:06.170Z,1002.2
2018-04-22T02:02:07.558Z,1002.2
2018-04-22T02:03:08.974Z,1002.2
2018-04-22T02:04:10.355Z,1002.2
2018-04-22T02:05:11.752Z,1002.2
2018-04-22T02:06:13.141Z,1002.2
2018-04-22T02:07:14.535Z,1002.2
2018-04-22T02:08:15.931Z,1002.1
2018-04-22T02:09:17.324Z,1002.2
2018-04-22T02:10:18.733Z,1002.2
2018-04-22T02:11:20.123Z,1002.2
2018-04-22T02:12:21.526Z,1002.1
2018-04-22T02:13:22.912Z,1002.1
2018-04-22T02:14:24.308Z,1002.1
2018-04-22T02:15:25.732Z,1002.1
2018-04-22T02:16:27.125Z,1002.1
2018-04-22T02:17:28.521Z,1002.1
2018-04-22T02:18:29.913Z,1002.1
2018-04-22T02:19:31.302Z,1002.0
2018-04-22T02:20:32.697Z,1002.0
2018-04-22T02:21:34.088Z,1002.0
2018-04-22T02:22:35.520Z,1002.0
2018-04-22T02:23:36.908Z,1002.0
2018-04-22T02:24:38.331Z,1002.0
2018-04-22T02:25:39.698Z,1002.0
2018-04-22T02:26:41.097Z,1002.0
2018-04-22T02:27:42.484Z,1002.0
2018-04-22T02:28:43.915Z,1001.9
2018-04-22T02:29:45.307Z,1002.0
2018-04-22T02:30:46.700Z,1002.0
2018-04-22T02:31:48.139Z,1001.9
2018-04-22T02:32:49.533Z,1002.0
2018-04-22T02:33:51.033Z,1001.9
2018-04-22T02:34:52.420Z,1001.9
2018-04-22T02:35:53.817Z,1001.9
2018-04-22T02:36:55.211Z,1001.9
2018-04-22T02:37:56.608Z,1001.9
2018-04-22T02:38:57.999Z,1001.9
2018-04-22T02:39:59.405Z,1001.9
2018-04-22T02:41:00.794Z,1001.9
2018-04-22T02:42:02.191Z,1001.9
2018-04-22T02:43:03.588Z,1001.8
2018-04-22T02:44:05.086Z,1001.8
2018-04-22T02:45:06.461Z,1001.8
2018-04-22T02:46:07.903Z,1001.8
2018-04-22T02:47:09.305Z,1001.8
2018-04-22T02:48:10.700Z,1001.8
2018-04-22T02:49:12.081Z,1001.8
2018-04-22T02:50:13.537Z,1001.8
2018-04-22T02:51:14.921Z,1001.8
2018-04-22T02:52:16.306Z,1001.7
2018-04-22T02:53:17.701Z,1001.7
2018-04-22T02:54:19.095Z,1001.7
2018-04-22T02:55:20.485Z,1001.7
2018-04-22T02:56:21.877Z,1001.7
2018-04-22T02:57:23.271Z,1001.7
2018-04-22T02:58:24.665Z,1001.7
2018-04-22T02:59:26.127Z,1001.7
2018-04-22T03:00:27.491Z,1001.6
2018-04-22T03:01:28.886Z,1001.6
2018-04-22T03:02:30.275Z,1001.6
2018-04-22T03:03:31.671Z,1001.6
2018-04-22T03:04:33.072Z,1001.6
2018-04-22T03:05:34.465Z,1001.6
2018-04-22T03:06:35.858Z,1001.6
2018-04-22T03:07:37.260Z,1001.5
2018-04-22T03:08:38.710Z,1001.5
2018-04-22T03:09:40.099Z,1001.5
2018-04-22T03:10:41.487Z,1001.5
2018-04-22T03:11:42.887Z,1001.5
2018-04-22T03:12:44.307Z,1001.4
2018-04-22T03:13:45.702Z,1001.5
2018-04-22T03:14:47.120Z,1001.4
2018-04-22T03:15:48.521Z,1001.4
2018-04-22T03:16:49.916Z,1001.4
2018-04-22T03:17:51.444Z,1001.4
2018-04-22T03:18:52.879Z,1001.4
2018-04-22T03:19:54.275Z,1001.4
2018-04-22T03:20:55.666Z,1001.4
2018-04-22T03:21:57.061Z,1001.4
2018-04-22T03:22:58.473Z,1001.4
2018-04-22T03:23:59.863Z,1001.4
2018-04-22T03:25:01.273Z,1001.4
2018-04-22T03:26:02.672Z,1001.3
2018-04-22T03:27:04.058Z,1001.3
2018-04-22T03:28:05.456Z,1001.3
2018-04-22T03:29:06.887Z,1001.3
2018-04-22T03:30:08.283Z,1001.2
2018-04-22T03:31:09.676Z,1001.2
2018-04-22T03:32:11.069Z,1001.2
2018-04-22T03:33:12.467Z,1001.2
2018-04-22T03:34:13.866Z,1001.2
2018-04-22T03:35:15.257Z,1001.1
2018-04-22T03:36:16.651Z,1001.1
2018-04-22T03:37:18.075Z,1001.0
2018-04-22T03:38:19.467Z,1001.0
2018-04-22T03:39:20.863Z,1001.0
2018-04-22T03:40:22.250Z,1001.0
2018-04-22T03:41:23.647Z,1001.0
2018-04-22T03:42:25.093Z,1001.0
2018-04-22T03:43:26.490Z,1001.0
2018-04-22T03:44:27.912Z,1001.1
2018-04-22T03:45:29.302Z,1001.1
2018-04-22T03:46:30.695Z,1001.1
2018-04-22T03:47:32.086Z,1001.1
2018-04-22T03:48:33.514Z,1001.0
2018-04-22T03:49:34.898Z,1001.1
2018-04-22T03:50:36.298Z,1001.0
2018-04-22T03:51:37.688Z,1001.0
2018-04-22T03:52:39.080Z,1001.0
2018-04-22T03:53:40.473Z,1001.0
2018-04-22T03:54:41.862Z,1001.0
2018-04-22T03:55:43.257Z,1000.9
2018-04-22T03:56:44.652Z,1000.9
2018-04-22T03:57:46.048Z,1000.9
2018-04-22T03:58:47.478Z,1000.9
2018-04-22T03:59:48.885Z,1000.9
2018-04-22T04:00:50.279Z,1000.8
2018-04-22T04:01:51.670Z,1000.8
2018-04-22T04:02:53.142Z,1000.8
2018-04-22T04:03:54.587Z,1000.8
2018-04-22T04:04:55.983Z,1000.8
2018-04-22T04:05:57.374Z,1000.8
2018-04-22T04:06:58.779Z,1000.8
2018-04-22T04:08:00.164Z,1000.7
2018-04-22T04:09:01.562Z,1000.7
2018-04-22T04:10:02.963Z,1000.7
2018-04-22T04:11:04.343Z,1000.7
2018-04-22T04:12:05.738Z,1000.7
2018-04-22T04:13:07.174Z,1000.7
2018-04-22T04:14:08.579Z,1000.7
2018-04-22T04:15:09.966Z,1000.7
2018-04-22T04:16:11.365Z,1000.7
2018-04-22T04:17:12.753Z,1000.7
2018-04-22T04:18:14.148Z,1000.7
2018-04-22T04:19:15.550Z,1000.7
2018-04-22T04:20:16.936Z,1000.7
2018-04-22T04:21:18.369Z,1000.7
2018-04-22T04:22:19.757Z,1000.7
2018-04-22T04:23:21.195Z,1000.7
2018-04-22T04:24:22.592Z,1000.6
2018-04-22T04:25:23.994Z,1000.7
2018-04-22T04:26:25.387Z,1000.7
2018-04-22T04:27:26.777Z,1000.7
2018-04-22T04:28:28.216Z,1000.7
2018-04-22T04:29:29.610Z,1000.7
2018-04-22T04:30:31.004Z,1000.7
2018-04-22T04:31:32.395Z,1000.7
2018-04-22T04:32:33.818Z,1000.7
2018-04-22T04:33:35.204Z,1000.7
2018-04-22T04:34:36.595Z,1000.7
2018-04-22T04:35:38.000Z,1000.7
2018-04-22T04:36:39.440Z,1000.7
2018-04-22T04:37:40.836Z,1000.7
2018-04-22T04:38:42.234Z,1000.7
2018-04-22T04:39:43.629Z,1000.7
2018-04-22T04:40:45.027Z,1000.8
2018-04-22T04:41:46.423Z,1000.8
2018-04-22T04:42:47.856Z,1000.7
2018-04-22T04:43:49.255Z,1000.8
2018-04-22T04:44:50.783Z,1000.7
2018-04-22T04:45:52.181Z,1000.8
2018-04-22T04:46:53.581Z,1000.8
2018-04-22T04:47:55.070Z,1000.7
2018-04-22T04:48:56.492Z,1000.7
2018-04-22T04:49:57.886Z,1000.7
2018-04-22T04:50:59.285Z,1000.7
2018-04-22T04:52:00.678Z,1000.7
2018-04-22T04:53:02.073Z,1000.7
2018-04-22T04:54:03.506Z,1000.6
2018-04-22T04:55:04.901Z,1000.7
2018-04-22T04:56:06.294Z,1000.6
2018-04-22T04:57:07.728Z,1000.6
2018-04-22T04:58:09.120Z,1000.6
2018-04-22T04:59:10.516Z,1000.6
2018-04-22T05:00:11.920Z,1000.6
2018-04-22T05:01:13.337Z,1000.6
2018-04-22T05:02:14.734Z,1000.6
2018-04-22T05:03:16.137Z,1000.6
2018-04-22T05:04:17.515Z,1000.6
2018-04-22T05:05:18.910Z,1000.6
2018-04-22T05:06:20.307Z,1000.5
2018-04-22T05:07:21.704Z,1000.6
2018-04-22T05:08:23.099Z,1000.6
2018-04-22T05:09:24.495Z,1000.6
2018-04-22T05:10:25.889Z,1000.6
2018-04-22T05:11:27.288Z,1000.6
2018-04-22T05:12:28.720Z,1000.6
2018-04-22T05:13:30.117Z,1000.5
2018-04-22T05:14:31.515Z,1000.6
2018-04-22T05:15:32.909Z,1000.6
2018-04-22T05:16:34.350Z,1000.6
2018-04-22T05:17:35.745Z,1000.6
2018-04-22T05:18:37.149Z,1000.6
2018-04-22T05:19:38.581Z,1000.6
2018-04-22T05:20:39.976Z,1000.6
2018-04-22T05:21:41.372Z,1000.6
2018-04-22T05:22:42.770Z,1000.6
2018-04-22T05:23:44.169Z,1000.7
2018-04-22T05:24:45.659Z,1000.6
2018-04-22T05:25:47.059Z,1000.6
2018-04-22T05:26:48.500Z,1000.6
2018-04-22T05:27:49.898Z,1000.6
2018-04-22T05:28:51.290Z,1000.6
2018-04-22T05:29:52.686Z,1000.6
2018-04-22T05:30:54.086Z,1000.7
2018-04-22T05:31:55.488Z,1000.7
2018-04-22T05:32:56.908Z,1000.6
2018-04-22T05:33:58.344Z,1000.6
2018-04-22T05:34:59.741Z,1000.6
2018-04-22T05:36:01.140Z,1000.6
2018-04-22T05:37:02.538Z,1000.6
2018-04-22T05:38:03.941Z,1000.6
2018-04-22T05:39:05.331Z,1000.6
2018-04-22T05:40:06.722Z,1000.6
2018-04-22T05:41:08.122Z,1000.5
2018-04-22T05:42:09.526Z,1000.5
2018-04-22T05:43:10.926Z,1000.5
2018-04-22T05:44:12.323Z,1000.5
2018-04-22T05:45:13.727Z,1000.5
2018-04-22T05:46:15.120Z,1000.5
2018-04-22T05:47:16.514Z,1000.5
2018-04-22T05:48:17.956Z,1000.5
2018-04-22T05:49:19.362Z,1000.5
2018-04-22T05:50:20.758Z,1000.5
2018-04-22T05:51:22.154Z,1000.5
2018-04-22T05:52:23.563Z,1000.5
2018-04-22T05:53:24.957Z,1000.5
2018-04-22T05:54:26.362Z,1000.4
2018-04-22T05:55:27.756Z,1000.5
2018-04-22T05:56:29.148Z,1000.5
2018-04-22T05:57:30.546Z,1000.5
2018-04-22T05:58:31.944Z,1000.4
2018-04-22T05:59:33.357Z,1000.4
2018-04-22T06:00:34.744Z,1000.4
2018-04-22T06:01:36.141Z,1000.4
2018-04-22T06:02:37.540Z,1000.5
2018-04-22T06:03:38.943Z,1000.5
2018-04-22T06:04:40.335Z,1000.4
2018-04-22T06:05:41.735Z,1000.5
2018-04-22T06:06:43.134Z,1000.5
2018-04-22T06:07:44.529Z,1000.5
2018-04-22T06:08:45.925Z,1000.5
2018-04-22T06:09:47.323Z,1000.5
2018-04-22T06:10:48.718Z,1000.4
2018-04-22T06:11:50.120Z,1000.4
2018-04-22T06:12:51.510Z,1000.4
2018-04-22T06:13:52.951Z,1000.4
2018-04-22T06:14:54.342Z,1000.4
2018-04-22T06:15:55.740Z,1000.3
2018-04-22T06:16:57.134Z,1000.3
2018-04-22T06:17:58.669Z,1000.3
2018-04-22T06:19:00.070Z,1000.3
2018-04-22T06:20:01.480Z,1000.3
2018-04-22T06:21:02.872Z,1000.3
2018-04-22T06:22:04.260Z,1000.3
2018-04-22T06:23:06.666Z,1000.3
2018-04-22T06:24:08.248Z,1000.3
2018-04-22T06:25:09.645Z,1000.3
2018-04-22T06:26:11.235Z,1000.3
2018-04-22T06:27:12.813Z,1000.3
2018-04-22T06:28:14.753Z,1000.3
2018-04-22T06:29:16.108Z,1000.3
2018-04-22T06:30:17.534Z,1000.3
2018-04-22T06:31:19.283Z,1000.4
2018-04-22T06:32:20.684Z,1000.3
2018-04-22T06:33:22.383Z,1000.3
2018-04-22T06:34:24.325Z,1000.3
2018-04-22T06:35:25.726Z,1000.4
2018-04-22T06:36:27.278Z,1000.3
2018-04-22T06:37:28.876Z,1000.4
2018-04-22T06:38:30.790Z,1000.3
2018-04-22T06:39:32.184Z,1000.4
2018-04-22T06:40:33.580Z,1000.4
2018-04-22T06:41:35.208Z,1000.4
2018-04-22T06:42:36.901Z,1000.4
2018-04-22T06:43:38.891Z,1000.3
2018-04-22T06:44:40.289Z,1000.4
2018-04-22T06:45:42.017Z,1000.4
2018-04-22T06:46:43.966Z,1000.4
2018-04-22T06:47:45.752Z,1000.4
2018-04-22T06:48:47.472Z,1000.4
2018-04-22T06:49:49.058Z,1000.3
2018-04-22T06:50:50.457Z,1000.4
2018-04-22T06:51:51.933Z,1000.3
2018-04-22T06:52:53.451Z,1000.4
2018-04-22T06:53:54.849Z,1000.3
2018-04-22T06:54:56.257Z,1000.3
2018-04-22T06:55:57.734Z,1000.2
2018-04-22T06:56:59.172Z,1000.3
2018-04-22T06:58:00.582Z,1000.3
2018-04-22T06:59:01.972Z,1000.3
2018-04-22T07:00:03.390Z,1000.3
2018-04-22T07:01:04.790Z,1000.3
2018-04-22T07:02:06.201Z,1000.3
2018-04-22T07:03:07.604Z,1000.3
2018-04-22T07:04:09.007Z,1000.3
2018-04-22T07:05:11.031Z,1000.3
2018-04-22T07:06:13.163Z,1000.3
2018-04-22T07:07:14.550Z,1000.3
2018-04-22T07:08:15.950Z,1000.3
2018-04-22T07:09:17.388Z,1000.3
2018-04-22T07:10:18.780Z,1000.3
2018-04-22T07:11:20.179Z,1000.3
2018-04-22T07:12:21.589Z,1000.3
2018-04-22T07:13:23.008Z,1000.3
2018-04-22T07:14:24.445Z,1000.3
2018-04-22T07:15:25.849Z,1000.2
2018-04-22T07:16:27.249Z,1000.2
2018-04-22T07:17:28.648Z,1000.3
2018-04-22T07:18:30.051Z,1000.2
2018-04-22T07:19:31.447Z,1000.3
2018-04-22T07:20:32.880Z,1000.3
2018-04-22T07:21:34.280Z,1000.3
2018-04-22T07:22:35.675Z,1000.3
2018-04-22T07:23:37.072Z,1000.3
2018-04-22T07:24:38.551Z,1000.3
2018-04-22T07:25:39.952Z,1000.3
2018-04-22T07:26:41.349Z,1000.3
2018-04-22T07:27:42.750Z,1000.3
2018-04-22T07:28:44.152Z,1000.4
2018-04-22T07:29:45.555Z,1000.4
2018-04-22T07:30:46.950Z,1000.4
2018-04-22T07:31:48.363Z,1000.4
2018-04-22T07:32:49.767Z,1000.4
2018-04-22T07:33:51.168Z,1000.4
2018-04-22T07:34:52.653Z,1000.4
2018-04-22T07:35:54.065Z,1000.5
2018-04-22T07:36:55.936Z,1000.4
2018-04-22T07:37:57.250Z,1000.5
2018-04-22T07:38:59.045Z,1000.4
2018-04-22T07:40:00.506Z,1000.4
2018-04-22T07:41:02.180Z,1000.4
2018-04-22T07:42:03.568Z,1000.4
2018-04-22T07:43:05.277Z,1000.4
2018-04-22T07:44:06.661Z,1000.4
2018-04-22T07:45:08.086Z,1000.4
2018-04-22T07:46:09.605Z,1000.4
2018-04-22T07:47:11.641Z,1000.4
2018-04-22T07:48:13.271Z,1000.4
2018-04-22T07:49:14.817Z,1000.4
2018-04-22T07:50:16.219Z,1000.4
2018-04-22T07:51:17.630Z,1000.4
2018-04-22T07:52:19.055Z,1000.3
2018-04-22T07:53:20.920Z,1000.3
2018-04-22T07:54:22.412Z,1000.3
2018-04-22T07:55:23.822Z,1000.3
2018-04-22T07:56:25.216Z,1000.3
2018-04-22T07:57:26.707Z,1000.3
2018-04-22T07:58:28.129Z,1000.3
2018-04-22T07:59:29.864Z,1000.3
2018-04-22T08:00:31.591Z,1000.2
2018-04-22T08:01:33.238Z,1000.2
2018-04-22T08:02:34.628Z,1000.2
2018-04-22T08:03:36.299Z,1000.2
2018-04-22T08:04:37.701Z,1000.2
2018-04-22T08:05:39.166Z,1000.2
2018-04-22T08:06:41.129Z,1000.2
2018-04-22T08:07:42.471Z,1000.2
2018-04-22T08:08:43.871Z,1000.3
2018-04-22T08:09:45.271Z,1000.2
2018-04-22T08:10:47.950Z,1000.2
2018-04-22T08:11:49.539Z,1000.2
2018-04-22T08:12:50.944Z,1000.2
2018-04-22T08:13:53.011Z,1000.2
2018-04-22T08:14:54.377Z,1000.2
2018-04-22T08:15:56.401Z,1000.2
2018-04-22T08:16:57.860Z,1000.2
2018-04-22T08:17:59.915Z,1000.2
2018-04-22T08:19:01.336Z,1000.2
2018-04-22T08:20:02.744Z,1000.2
2018-04-22T08:21:04.364Z,1000.2
2018-04-22T08:22:05.764Z,1000.2
2018-04-22T08:23:07.494Z,1000.2
2018-04-22T08:24:08.904Z,1000.2
2018-04-22T08:25:10.961Z,1000.2
2018-04-22T08:26:12.306Z,1000.2
2018-04-22T08:27:13.857Z,1000.2
2018-04-22T08:28:15.631Z,1000.2
2018-04-22T08:29:17.477Z,1000.2
2018-04-22T08:30:18.943Z,1000.2
2018-04-22T08:31:20.742Z,1000.2
2018-04-22T08:32:22.563Z,1000.2
2018-04-22T08:33:23.966Z,1000.1
2018-04-22T08:34:25.366Z,1000.1
2018-04-22T08:35:26.769Z,1000.1
2018-04-22T08:36:28.177Z,1000.1
2018-04-22T08:37:29.573Z,1000.1
2018-04-22T08:38:31.177Z,1000.1
2018-04-22T08:39:32.940Z,1000.1
2018-04-22T08:40:34.643Z,1000.1
2018-04-22T08:41:36.039Z,1000.1
2018-04-22T08:42:37.958Z,1000.1
2018-04-22T08:43:39.373Z,1000.2
2018-04-22T08:44:41.170Z,1000.2
2018-04-22T08:45:42.694Z,1000.1
2018-04-22T08:46:44.508Z,1000.1
2018-04-22T08:47:45.908Z,1000.1
2018-04-22T08:48:47.326Z,1000.1
2018-04-22T08:49:48.751Z,1000.1
2018-04-22T08:50:50.160Z,1000.1
2018-04-22T08:51:51.969Z,1000.1
2018-04-22T08:52:53.386Z,1000.1
2018-04-22T08:53:54.787Z,1000.1
2018-04-22T08:54:56.189Z,1000.1
2018-04-22T08:55:57.590Z,1000.1
2018-04-22T08:56:59.001Z,1000.1
2018-04-22T08:58:00.409Z,1000.1
2018-04-22T08:59:01.815Z,1000.1
2018-04-22T09:00:03.229Z,1000.0
2018-04-22T09:01:04.629Z,1000.0
2018-04-22T09:02:06.043Z,1000.0
2018-04-22T09:03:07.434Z,1000.0
2018-04-22T09:04:08.851Z,1000.0
2018-04-22T09:05:10.255Z,1000.0
2018-04-22T09:06:11.681Z,1000.0
2018-04-22T09:07:13.120Z,1000.0
2018-04-22T09:08:14.527Z,1000.0
2018-04-22T09:09:15.933Z,1000.0
2018-04-22T09:10:17.339Z,1000.0
2018-04-22T09:11:18.765Z,1000.1
2018-04-22T09:12:20.200Z,1000.0
2018-04-22T09:13:21.607Z,1000.0
2018-04-22T09:14:23.037Z,1000.0
2018-04-22T09:15:24.438Z,1000.1
2018-04-22T09:16:25.874Z,1000.1
2018-04-22T09:17:27.250Z,1000.1
2018-04-22T09:18:28.659Z,1000.1
2018-04-22T09:19:30.063Z,1000.1
2018-04-22T09:20:31.469Z,1000.0
2018-04-22T09:21:32.866Z,1000.1
2018-04-22T09:22:34.294Z,1000.1
2018-04-22T09:23:35.674Z,1000.1
2018-04-22T09:24:37.078Z,1000.1
2018-04-22T09:25:38.500Z,1000.1
2018-04-22T09:26:40.011Z,1000.1
2018-04-22T09:27:41.411Z,1000.1
2018-04-22T09:28:42.820Z,1000.1
2018-04-22T09:29:44.228Z,1000.0
2018-04-22T09:30:45.629Z,1000.0
2018-04-22T09:31:47.036Z,1000.0
2018-04-22T09:32:48.438Z,1000.0
2018-04-22T09:33:49.845Z,1000.0
2018-04-22T09:34:51.257Z,1000.0
2018-04-22T09:35:52.656Z,1000.0
2018-04-22T09:36:54.065Z,1000.0
2018-04-22T09:37:55.474Z,1000.0
2018-04-22T09:38:56.876Z,999.9
2018-04-22T09:39:58.277Z,999.9
2018-04-22T09:40:59.683Z,999.9
2018-04-22T09:42:01.105Z,999.9
2018-04-22T09:43:02.524Z,999.9
2018-04-22T09:44:03.912Z,999.9
2018-04-22T09:45:05.313Z,999.9
2018-04-22T09:46:06.714Z,999.9
2018-04-22T09:47:08.117Z,999.8
2018-04-22T09:48:09.529Z,999.8
2018-04-22T09:49:10.922Z,999.8
2018-04-22T09:50:12.322Z,999.8
2018-04-22T09:51:13.735Z,999.8
2018-04-22T09:52:15.136Z,999.7
2018-04-22T09:53:16.544Z,999.8
2018-04-22T09:54:18.007Z,999.8
2018-04-22T09:55:19.412Z,999.7
2018-04-22T09:56:20.848Z,999.7
2018-04-22T09:57:22.250Z,999.7
2018-04-22T09:58:23.653Z,999.7
2018-04-22T09:59:25.065Z,999.7
2018-04-22T10:00:26.477Z,999.7
2018-04-22T10:01:27.921Z,999.6
2018-04-22T10:02:29.323Z,999.6
2018-04-22T10:03:30.734Z,999.6
2018-04-22T10:04:32.129Z,999.6
2018-04-22T10:05:33.584Z,999.6
2018-04-22T10:06:34.986Z,999.6
2018-04-22T10:07:36.394Z,999.6
2018-04-22T10:08:37.799Z,999.5
2018-04-22T10:09:39.227Z,999.5
2018-04-22T10:10:40.679Z,999.5
2018-04-22T10:11:42.649Z,999.4
2018-04-22T10:12:44.053Z,999.5
2018-04-22T10:13:45.459Z,999.4
2018-04-22T10:14:46.863Z,999.4
2018-04-22T10:15:48.298Z,999.4
2018-04-22T10:16:49.721Z,999.4
2018-04-22T10:17:51.735Z,999.4
2018-04-22T10:18:53.413Z,999.4
2018-04-22T10:19:55.248Z,999.4
2018-04-22T10:20:56.904Z,999.3
2018-04-22T10:21:58.350Z,999.4
2018-04-22T10:22:59.711Z,999.3
2018-04-22T10:24:01.216Z,999.3
2018-04-22T10:25:02.769Z,999.3
2018-04-22T10:26:04.157Z,999.3
2018-04-22T10:27:06.208Z,999.3
2018-04-22T10:28:07.619Z,999.3
2018-04-22T10:29:09.385Z,999.3
2018-04-22T10:30:10.797Z,999.3
2018-04-22T10:31:12.383Z,999.2
2018-04-22T10:32:13.796Z,999.2
2018-04-22T10:33:15.766Z,999.2
2018-04-22T10:34:17.173Z,999.2
2018-04-22T10:35:18.873Z,999.1
2018-04-22T10:36:20.305Z,999.1
2018-04-22T10:37:21.986Z,999.1
2018-04-22T10:38:24.086Z,999.1
2018-04-22T10:39:25.511Z,999.1
2018-04-22T10:40:26.916Z,999.1
2018-04-22T10:41:28.698Z,999.0
2018-04-22T10:42:30.062Z,999.1
2018-04-22T10:43:31.930Z,999.1
2018-04-22T10:44:34.542Z,999.1
2018-04-22T10:45:36.004Z,999.0
2018-04-22T10:46:37.927Z,999.0
2018-04-22T10:47:39.672Z,999.0
2018-04-22T10:48:41.068Z,999.0
2018-04-22T10:49:42.616Z,998.9
2018-04-22T10:50:43.950Z,999.0
2018-04-22T10:51:45.361Z,998.9
2018-04-22T10:52:46.813Z,998.9
2018-04-22T10:53:48.237Z,998.9
2018-04-22T10:54:49.647Z,998.9
2018-04-22T10:55:51.057Z,998.9
2018-04-22T10:56:52.463Z,998.9
2018-04-22T10:57:53.911Z,998.9
2018-04-22T10:58:55.281Z,998.9
2018-04-22T10:59:56.688Z,998.8
2018-04-22T11:00:58.100Z,998.8
2018-04-22T11:01:59.564Z,998.8
2018-04-22T11:03:00.913Z,998.8
2018-04-22T11:04:02.321Z,998.8
2018-04-22T11:05:03.783Z,998.7
2018-04-22T11:06:05.166Z,998.7
2018-04-22T11:07:06.576Z,998.7
2018-04-22T11:08:07.996Z,998.6
2018-04-22T11:09:09.402Z,998.6
2018-04-22T11:10:10.812Z,998.6
2018-04-22T11:11:12.223Z,998.6
2018-04-22T11:12:13.634Z,998.5
2018-04-22T11:13:15.045Z,998.6
2018-04-22T11:14:16.472Z,998.6
2018-04-22T11:15:17.862Z,998.5
2018-04-22T11:16:19.266Z,998.5
2018-04-22T11:17:20.674Z,998.5
2018-04-22T11:18:22.110Z,998.5
2018-04-22T11:19:23.563Z,998.4
2018-04-22T11:20:24.973Z,998.4
2018-04-22T11:21:26.381Z,998.4
2018-04-22T11:22:27.789Z,998.5
2018-04-22T11:23:29.200Z,998.5
2018-04-22T11:24:30.685Z,998.5
2018-04-22T11:25:32.107Z,998.5
2018-04-22T11:26:33.576Z,998.4
2018-04-22T11:27:34.982Z,998.4
2018-04-22T11:28:36.392Z,998.5
2018-04-22T11:29:37.803Z,998.4
2018-04-22T11:30:39.206Z,998.4
2018-04-22T11:31:40.610Z,998.4
2018-04-22T11:32:42.019Z,998.4
2018-04-22T11:33:43.437Z,998.4
2018-04-22T11:34:44.842Z,998.3
2018-04-22T11:35:46.279Z,998.3
2018-04-22T11:36:47.687Z,998.3
2018-04-22T11:37:49.095Z,998.3
2018-04-22T11:38:50.503Z,998.3
2018-04-22T11:39:51.915Z,998.3
2018-04-22T11:40:53.383Z,998.3
2018-04-22T11:41:54.797Z,998.2
2018-04-22T11:42:56.207Z,998.2
2018-04-22T11:43:57.615Z,998.2
2018-04-22T11:44:59.019Z,998.2
2018-04-22T11:46:00.422Z,998.2
2018-04-22T11:47:01.834Z,998.2
2018-04-22T11:48:03.237Z,998.2
2018-04-22T11:49:04.659Z,998.1
2018-04-22T11:50:06.065Z,998.1
2018-04-22T11:51:07.472Z,998.0
2018-04-22T11:52:08.881Z,998.1
2018-04-22T11:53:10.289Z,998.1
2018-04-22T11:54:11.695Z,998.0
2018-04-22T11:55:13.096Z,998.1
2018-04-22T11:56:14.505Z,998.0
2018-04-22T11:57:15.911Z,997.9
2018-04-22T11:58:17.315Z,997.9
2018-04-22T11:59:18.729Z,997.8
2018-04-22T12:00:20.134Z,997.8
2018-04-22T12:01:21.540Z,997.9
2018-04-22T12:02:22.987Z,997.8
2018-04-22T12:03:24.357Z,997.7
2018-04-22T12:04:25.760Z,997.7
2018-04-22T12:05:27.169Z,997.7
2018-04-22T12:06:28.615Z,997.7
2018-04-22T12:07:30.026Z,997.7
2018-04-22T12:08:31.438Z,997.6
2018-04-22T12:09:32.960Z,997.6
2018-04-22T12:10:34.414Z,997.6
2018-04-22T12:11:35.819Z,997.6
2018-04-22T12:12:37.220Z,997.5
2018-04-22T12:13:38.624Z,997.4
2018-04-22T12:14:40.037Z,997.4
2018-04-22T12:15:41.431Z,997.4
2018-04-22T12:16:42.926Z,997.3
2018-04-22T12:17:44.266Z,997.3
2018-04-22T12:18:45.664Z,997.3
2018-04-22T12:19:47.074Z,997.3
2018-04-22T12:20:48.502Z,997.4
2018-04-22T12:21:49.894Z,997.5
2018-04-22T12:22:51.293Z,997.7
2018-04-22T12:23:52.761Z,997.9
2018-04-22T12:24:54.204Z,998.0
2018-04-22T12:25:55.611Z,998.3
2018-04-22T12:26:57.013Z,998.5
2018-04-22T12:27:58.421Z,998.7
2018-04-22T12:28:59.818Z,998.6
2018-04-22T12:30:01.275Z,998.7
2018-04-22T12:31:02.667Z,998.9
2018-04-22T12:32:04.071Z,998.9
2018-04-22T12:33:05.472Z,998.8
2018-04-22T12:34:06.871Z,998.8
2018-04-22T12:35:08.287Z,998.7
2018-04-22T12:36:09.679Z,998.6
2018-04-22T12:37:11.087Z,998.5
2018-04-22T12:38:12.528Z,998.4
2018-04-22T12:39:13.997Z,998.4
2018-04-22T12:40:15.408Z,998.3
2018-04-22T12:41:16.805Z,998.4
2018-04-22T12:42:18.223Z,998.5
2018-04-22T12:43:20.156Z,998.5
2018-04-22T12:44:21.568Z,998.5
2018-04-22T12:45:23.106Z,998.5
2018-04-22T12:46:24.509Z,998.5
2018-04-22T12:47:25.913Z,998.4
2018-04-22T12:48:27.317Z,998.3
2018-04-22T12:49:28.958Z,998.2
2018-04-22T12:50:30.355Z,998.1
2018-04-22T12:51:31.951Z,998.1
2018-04-22T12:52:33.367Z,998.2